Hlavní strana
METAR-TAF:

METAR-TAF

Letiště :

Letiště Mijazaki

Mijazaki, Japonsko

zeměpisná šířka: 31-52N, zeměpisná délka: 131-27E, výška: 6 m

Aktuální stav počasí

Zpráva byla vytvořena před 1 hodinou a 2 minutami, v 09:00 UTC
Jihovýchodní vítr 9 kt
Teplota 15°C
Vlhkost vzduchu 44%
Tlak 1023 hPa
Viditelnost 10 km a více
Skoro jasno ve výšce 3000 ft
Oblačno až skoro zataženo

METAR: RJFM 240900Z 14009KT 9999 FEW030 BKN/// 15/03 Q1023

Čas: 19:02 (10:02 UTC)

Předpověď počasí

Zpráva byla vytvořena před 4 hodinami a 55 minutami, v 05:07 UTC
Předpověď platná od 24 v 06 UTC do 25 v 12 UTC
Jihojihovýchodní vítr 9 kt
Viditelnost 10 km a více
Skoro jasno ve výšce 4000 ft
Změna
od 24 v 08 UTC do 24 v 10 UTC
Západní vítr 5 kt

TAF: RJFM 240507Z 2406/2512 15009KT 9999 FEW040 BECMG 2408/2410 26005KT

Stav a předpovědi počasí z více než 4 000 letišť (zprávy METAR a TAF).

Červené a žluté tečky na mapě představují dostupné meteorologické stanice.

Když kurzor umístíte na tečku, zobrazí se název stanice.

Pak kliknutím zobrazíte stav a předpověď počasí.

Chcete-li změnit mapu, kliknutím na zelené tlačítko se znaménkem +mapu přiblížíte, kliknutím na zelené tlačítko se znaménkem – mapu oddálíte a kliknutím na zelené šipky přejdete na sousední mapy.


METAR-TAF: